createdAt,value
2022-11-21T00:02:00.715Z,21.42
2022-11-21T00:04:30.319Z,24.48
2022-11-21T00:06:59.847Z,17.45
2022-11-21T00:09:29.817Z,14.05
2022-11-21T00:12:01.914Z,16.63
2022-11-21T00:14:31.300Z,27.83
2022-11-21T00:17:00.748Z,23.67
2022-11-21T00:19:30.231Z,25.85
2022-11-21T00:21:59.640Z,30.70
2022-11-21T00:24:29.309Z,23.00
2022-11-21T00:27:01.595Z,30.17
2022-11-21T00:29:31.054Z,21.70
2022-11-21T00:32:00.572Z,15.93
2022-11-21T00:34:30.302Z,17.30
2022-11-21T00:36:59.781Z,16.90
2022-11-21T00:39:29.416Z,15.48
2022-11-21T00:42:01.554Z,15.40
2022-11-21T00:44:31.751Z,25.38
2022-11-21T00:47:01.270Z,20.08
2022-11-21T00:49:30.756Z,26.85
2022-11-21T00:52:00.256Z,25.15
2022-11-21T00:54:29.950Z,22.95
2022-11-21T00:57:02.149Z,20.92
2022-11-21T00:59:31.724Z,19.33
2022-11-21T01:02:01.427Z,29.38
2022-11-21T01:04:33.567Z,27.48
2022-11-21T01:07:03.490Z,20.92
2022-11-21T01:09:33.399Z,18.05
2022-11-21T01:12:05.494Z,22.38
2022-11-21T01:14:34.978Z,20.73
2022-11-21T01:17:04.489Z,26.88
2022-11-21T01:19:33.990Z,23.63
2022-11-21T01:22:03.539Z,24.30
2022-11-21T01:24:33.131Z,24.20
2022-11-21T01:27:05.160Z,20.00
2022-11-21T01:29:34.630Z,31.95
2022-11-21T01:32:04.117Z,27.30
2022-11-21T01:34:33.602Z,26.52
2022-11-21T01:37:03.097Z,24.10
2022-11-21T01:39:32.563Z,23.20
2022-11-21T01:42:02.073Z,27.15
2022-11-21T01:44:53.551Z,32.88
2022-11-21T01:47:23.682Z,25.50
2022-11-21T01:49:54.556Z,26.30
2022-11-21T01:52:25.863Z,24.80
2022-11-21T01:54:57.931Z,22.40
2022-11-21T01:57:30.478Z,19.98
2022-11-21T02:00:04.686Z,21.25
2022-11-21T02:02:36.646Z,25.98
2022-11-21T02:05:09.068Z,22.88
2022-11-21T02:07:42.656Z,19.83
2022-11-21T02:10:13.334Z,21.92
2022-11-21T02:12:46.488Z,17.08
2022-11-21T02:15:18.902Z,18.83
2022-11-21T02:17:48.336Z,21.15
2022-11-21T02:20:18.984Z,16.80
2022-11-21T02:22:54.552Z,19.35
2022-11-21T02:25:28.843Z,18.73
2022-11-21T02:28:01.258Z,15.82
2022-11-21T02:30:31.720Z,15.73
2022-11-21T02:33:01.741Z,17.30
2022-11-21T02:35:31.292Z,15.63
2022-11-21T02:38:02.559Z,17.85
2022-11-21T02:40:36.518Z,16.08
2022-11-21T02:43:11.015Z,15.60
2022-11-21T02:45:42.549Z,23.10
2022-11-21T02:48:12.602Z,18.15
2022-11-21T02:50:43.481Z,15.55
2022-11-21T02:53:14.211Z,20.70
2022-11-21T02:55:46.393Z,19.63
2022-11-21T02:58:15.887Z,19.13
2022-11-21T03:00:45.525Z,17.10
2022-11-21T03:03:15.126Z,20.08
2022-11-21T03:05:44.915Z,16.83
2022-11-21T03:08:15.373Z,17.90
2022-11-21T03:10:47.358Z,19.48
2022-11-21T03:13:16.990Z,17.10
2022-11-21T03:15:46.453Z,22.33
2022-11-21T03:18:16.282Z,19.60
2022-11-21T03:20:45.794Z,17.15
2022-11-21T03:23:15.735Z,18.75
2022-11-21T03:25:47.755Z,16.83
2022-11-21T03:28:17.197Z,17.30
2022-11-21T03:30:46.669Z,19.52
2022-11-21T03:33:16.756Z,19.83
2022-11-21T03:35:46.266Z,18.15
2022-11-21T03:38:15.677Z,17.58
2022-11-21T03:40:47.664Z,32.47
2022-11-21T03:43:17.207Z,16.20
2022-11-21T03:45:49.006Z,19.13
2022-11-21T03:48:18.574Z,19.02
2022-11-21T03:50:48.067Z,18.58
2022-11-21T03:53:17.619Z,22.33
2022-11-21T03:55:49.611Z,24.02
2022-11-21T03:58:19.311Z,17.90
2022-11-21T04:00:50.378Z,19.27
2022-11-21T04:03:21.407Z,21.42
2022-11-21T04:05:50.926Z,23.05
2022-11-21T04:08:20.396Z,16.75
2022-11-21T04:10:53.597Z,21.92
2022-11-21T04:13:23.095Z,23.95
2022-11-21T04:15:52.691Z,21.10
2022-11-21T04:18:22.068Z,23.02
2022-11-21T04:20:51.551Z,25.52
2022-11-21T04:23:20.957Z,27.35
2022-11-21T04:25:53.087Z,21.80
2022-11-21T04:28:22.879Z,21.73
2022-11-21T04:30:54.889Z,23.60
2022-11-21T04:33:24.892Z,20.33
2022-11-21T04:35:54.450Z,21.83
2022-11-21T04:38:23.893Z,23.10
2022-11-21T04:40:55.853Z,24.88
2022-11-21T04:43:25.275Z,21.60
2022-11-21T04:45:54.688Z,23.88
2022-11-21T04:48:24.798Z,22.67
2022-11-21T04:50:54.197Z,22.30
2022-11-21T04:53:23.597Z,20.20
2022-11-21T04:55:55.647Z,23.30
2022-11-21T04:58:25.067Z,22.15
2022-11-21T05:00:54.530Z,23.83
2022-11-21T05:03:23.943Z,24.23
2022-11-21T05:05:53.545Z,24.25
2022-11-21T05:08:22.908Z,25.90
2022-11-21T05:11:07.360Z,21.40
2022-11-21T05:13:36.809Z,24.95
2022-11-21T05:16:06.627Z,21.70
2022-11-21T05:18:36.095Z,22.90
2022-11-21T05:21:06.012Z,22.92
2022-11-21T05:23:35.423Z,20.65
2022-11-21T05:26:07.384Z,23.40
2022-11-21T05:28:36.890Z,28.25
2022-11-21T05:31:06.342Z,22.27
2022-11-21T05:33:35.794Z,25.98
2022-11-21T05:36:05.198Z,21.77
2022-11-21T05:38:34.575Z,19.90
2022-11-21T05:41:03.935Z,22.17
2022-11-21T05:43:48.403Z,24.77
2022-11-21T05:46:19.082Z,33.40
2022-11-21T05:48:49.640Z,27.67
2022-11-21T05:51:19.596Z,22.88
2022-11-21T05:53:49.916Z,22.17
2022-11-21T05:56:20.667Z,27.10
2022-11-21T05:58:52.689Z,26.80
2022-11-21T06:01:42.873Z,23.38
2022-11-21T06:04:10.294Z,26.40
2022-11-21T06:06:40.100Z,22.33
2022-11-21T06:09:09.544Z,26.70
2022-11-21T06:11:38.955Z,25.13
2022-11-21T06:14:10.939Z,43.58
2022-11-21T06:16:40.382Z,23.50
2022-11-21T06:19:09.972Z,25.25
2022-11-21T06:21:39.370Z,25.10
2022-11-21T06:24:10.217Z,27.58
2022-11-21T06:26:39.585Z,29.65
2022-11-21T06:29:13.614Z,32.35
2022-11-21T06:31:42.987Z,31.92
2022-11-21T06:34:12.433Z,35.45
2022-11-21T06:36:42.309Z,29.98
2022-11-21T06:39:11.706Z,30.95
2022-11-21T06:41:41.082Z,34.45
2022-11-21T06:44:13.079Z,26.85
2022-11-21T06:46:45.828Z,33.83
2022-11-21T06:49:17.792Z,32.58
2022-11-21T06:51:47.631Z,54.63
2022-11-21T06:54:17.609Z,51.90
2022-11-21T06:56:46.982Z,42.33
2022-11-21T06:59:19.293Z,38.28
2022-11-21T07:01:48.822Z,36.28
2022-11-21T07:04:18.211Z,38.08
2022-11-21T07:06:47.636Z,38.22
2022-11-21T07:09:32.648Z,50.22
2022-11-21T07:12:23.151Z,38.88
2022-11-21T07:14:52.496Z,44.97
2022-11-21T07:17:21.897Z,36.55
2022-11-21T07:19:51.288Z,41.97
2022-11-21T07:22:21.131Z,40.03
2022-11-21T07:24:50.500Z,41.05
2022-11-21T07:27:19.871Z,40.17
2022-11-21T07:29:49.278Z,35.08
2022-11-21T07:32:21.266Z,32.25
2022-11-21T07:34:50.625Z,36.75
2022-11-21T07:37:20.082Z,38.95
2022-11-21T07:39:49.492Z,43.47
2022-11-21T07:42:18.945Z,41.58
2022-11-21T07:44:48.446Z,38.63
2022-11-21T07:47:17.882Z,39.65
2022-11-21T07:49:49.863Z,37.90
2022-11-21T07:52:19.294Z,37.35
2022-11-21T07:54:48.698Z,38.70
2022-11-21T07:57:18.098Z,35.60
2022-11-21T07:59:47.477Z,31.67
2022-11-21T08:02:21.254Z,34.65
2022-11-21T08:04:53.494Z,38.50
2022-11-21T08:07:24.225Z,37.85
2022-11-21T08:09:53.751Z,35.15
2022-11-21T08:12:23.403Z,39.08
2022-11-21T08:14:55.556Z,40.22
2022-11-21T08:17:24.984Z,39.90
2022-11-21T08:19:58.212Z,38.78
2022-11-21T08:22:27.639Z,42.08
2022-11-21T08:24:57.024Z,37.60
2022-11-21T08:27:26.524Z,34.70
2022-11-21T08:29:55.926Z,30.58
2022-11-21T08:32:25.288Z,31.05
2022-11-21T08:34:57.275Z,37.22
2022-11-21T08:37:26.666Z,32.85
2022-11-21T08:39:56.077Z,34.45
2022-11-21T08:42:25.482Z,31.08
2022-11-21T08:44:54.968Z,21.35
2022-11-21T08:47:24.382Z,32.85
2022-11-21T08:49:53.795Z,30.67
2022-11-21T08:52:25.824Z,36.05
2022-11-21T08:54:55.246Z,32.85
2022-11-21T08:57:24.661Z,29.83
2022-11-21T08:59:54.058Z,35.85
2022-11-21T09:02:23.477Z,23.25
2022-11-21T09:04:53.511Z,28.98
2022-11-21T09:07:25.549Z,31.48
2022-11-21T09:09:54.971Z,32.88
2022-11-21T09:12:24.429Z,26.85
2022-11-21T09:15:06.397Z,22.10
2022-11-21T09:17:48.261Z,27.48
2022-11-21T09:20:18.047Z,40.33
2022-11-21T09:22:50.185Z,25.92
2022-11-21T09:25:19.873Z,31.35
2022-11-21T09:27:49.346Z,23.88
2022-11-21T09:30:18.934Z,29.58
2022-11-21T09:32:48.341Z,26.75
2022-11-21T09:35:17.842Z,34.17
2022-11-21T09:37:51.514Z,35.00
2022-11-21T09:40:21.545Z,30.75
2022-11-21T09:43:06.483Z,29.88
2022-11-21T09:45:37.371Z,40.53
2022-11-21T09:48:12.054Z,32.50
2022-11-21T09:51:14.145Z,31.58
2022-11-21T09:53:40.479Z,35.40
2022-11-21T09:56:14.237Z,29.73
2022-11-21T09:58:47.114Z,38.10
2022-11-21T10:01:19.075Z,31.80
2022-11-21T10:03:49.918Z,28.77
2022-11-21T10:06:22.796Z,27.30
2022-11-21T10:08:59.904Z,30.98
2022-11-21T10:12:00.385Z,32.10
2022-11-21T10:14:39.761Z,24.50
2022-11-21T10:17:20.901Z,24.25
2022-11-21T10:20:10.229Z,23.95
2022-11-21T10:22:53.861Z,23.55
2022-11-21T10:25:27.852Z,23.55
2022-11-21T10:28:00.129Z,13.82
2022-11-21T10:30:29.865Z,21.40
2022-11-21T10:33:01.410Z,30.60
2022-11-21T10:35:36.649Z,22.42
2022-11-21T10:38:20.467Z,22.45
2022-11-21T10:40:54.412Z,30.17
2022-11-21T10:43:44.047Z,23.55
2022-11-21T10:46:14.511Z,16.80
2022-11-21T10:48:43.930Z,20.65
2022-11-21T10:51:28.935Z,20.40
2022-11-21T10:54:21.732Z,18.55
2022-11-21T10:56:55.015Z,23.60
2022-11-21T10:59:30.733Z,20.42
2022-11-21T11:02:02.229Z,18.63
2022-11-21T11:04:40.698Z,19.48
2022-11-21T11:07:27.232Z,23.45
2022-11-21T11:10:17.343Z,22.05
2022-11-21T11:13:08.701Z,25.15
2022-11-21T11:16:01.759Z,17.45
2022-11-21T11:18:31.512Z,17.60
2022-11-21T11:21:15.102Z,11.77
2022-11-21T11:23:44.963Z,17.23
2022-11-21T11:26:24.481Z,20.30
2022-11-21T11:28:58.237Z,23.33
2022-11-21T11:31:27.705Z,33.97
2022-11-21T11:33:58.531Z,18.73
2022-11-21T11:36:40.022Z,17.20
2022-11-21T11:39:17.084Z,16.33
2022-11-21T11:42:16.773Z,15.40
2022-11-21T11:45:07.124Z,19.95
2022-11-21T11:47:41.883Z,15.85
2022-11-21T11:50:15.656Z,18.17
2022-11-21T11:52:57.100Z,17.35
2022-11-21T11:55:29.618Z,13.13
2022-11-21T11:58:02.565Z,14.05
2022-11-21T12:00:41.624Z,15.98
2022-11-21T12:03:16.120Z,16.40
2022-11-21T12:05:56.755Z,11.85
2022-11-21T12:08:45.999Z,12.43
2022-11-21T12:11:42.505Z,12.83
2022-11-21T12:14:48.443Z,14.00
2022-11-21T12:17:23.197Z,19.00
2022-11-21T12:19:53.551Z,20.60
2022-11-21T12:22:23.600Z,10.50
2022-11-21T12:24:53.035Z,15.40
2022-11-21T12:27:29.594Z,12.33
2022-11-21T12:30:12.011Z,10.27
2022-11-21T12:32:55.693Z,15.57
2022-11-21T12:35:39.284Z,18.40
2022-11-21T12:38:17.690Z,14.17
2022-11-21T12:40:51.512Z,11.70
2022-11-21T12:43:25.563Z,13.77
2022-11-21T12:45:59.071Z,9.10
2022-11-21T12:48:53.664Z,11.27
2022-11-21T12:52:01.287Z,11.37
2022-11-21T12:55:04.932Z,8.97
2022-11-21T12:57:44.808Z,11.87
2022-11-21T13:00:20.315Z,9.10
2022-11-21T13:03:08.467Z,10.00
2022-11-21T13:05:43.689Z,10.67
2022-11-21T13:08:17.653Z,15.20
2022-11-21T13:11:13.799Z,8.97
2022-11-21T13:13:45.312Z,12.13
2022-11-21T13:16:36.628Z,11.33
2022-11-21T13:19:15.745Z,10.57
2022-11-21T13:21:50.508Z,10.30
2022-11-21T13:24:50.310Z,10.73
2022-11-21T13:27:33.549Z,12.60
2022-11-21T13:30:24.599Z,10.73
2022-11-21T13:32:54.997Z,12.17
2022-11-21T13:36:09.362Z,9.73
2022-11-21T13:39:08.857Z,8.73
2022-11-21T13:42:20.570Z,15.63
2022-11-21T13:44:50.903Z,7.83
2022-11-21T13:47:46.176Z,7.70
2022-11-21T13:50:24.957Z,9.80
2022-11-21T13:53:01.966Z,10.63
2022-11-21T13:55:51.621Z,13.23
2022-11-21T13:58:33.324Z,8.80
2022-11-21T14:01:24.516Z,10.50
2022-11-21T14:04:08.907Z,9.53
2022-11-21T14:06:39.924Z,10.13
2022-11-21T14:09:20.339Z,9.03
2022-11-21T14:11:51.643Z,10.00
2022-11-21T14:14:42.417Z,9.70
2022-11-21T14:17:32.800Z,9.73
2022-11-21T14:20:04.004Z,14.10
2022-11-21T14:22:43.854Z,17.27
2022-11-21T14:25:19.472Z,14.10
2022-11-21T14:27:50.790Z,13.90
2022-11-21T14:30:37.855Z,14.97
2022-11-21T14:33:29.182Z,14.83
2022-11-21T14:36:02.230Z,14.20
2022-11-21T14:38:33.252Z,17.93
2022-11-21T14:41:35.279Z,13.63
2022-11-21T14:44:20.467Z,15.77
2022-11-21T14:46:53.572Z,18.03
2022-11-21T14:49:26.391Z,14.73
2022-11-21T14:52:04.265Z,17.07
2022-11-21T14:54:35.947Z,14.43
2022-11-21T14:57:10.389Z,22.70
2022-11-21T14:59:43.122Z,17.13
2022-11-21T15:02:18.705Z,14.97
2022-11-21T15:04:50.403Z,16.70
2022-11-21T15:07:31.357Z,17.13
2022-11-21T15:12:55.852Z,15.40
2022-11-21T15:15:31.329Z,21.57
2022-11-21T15:18:27.997Z,18.90
2022-11-21T15:20:56.725Z,15.63
2022-11-21T15:23:30.647Z,18.17
2022-11-21T15:26:01.639Z,17.30
2022-11-21T15:28:32.285Z,18.23
2022-11-21T15:31:17.402Z,18.90
2022-11-21T15:37:05.259Z,16.23
2022-11-21T15:39:36.105Z,15.00
2022-11-21T15:42:35.763Z,20.65
2022-11-21T15:45:07.055Z,15.85
2022-11-21T15:47:36.815Z,19.23
2022-11-21T15:50:09.806Z,17.37
2022-11-21T15:52:48.270Z,18.50
2022-11-21T15:55:22.562Z,19.63
2022-11-21T15:57:52.039Z,15.30
2022-11-21T16:00:21.732Z,22.05
2022-11-21T16:02:51.769Z,19.77
2022-11-21T16:05:23.809Z,19.10
2022-11-21T16:07:53.337Z,18.00
2022-11-21T16:10:27.572Z,18.92
2022-11-21T16:12:57.889Z,19.20
2022-11-21T16:15:27.535Z,19.15
2022-11-21T16:17:57.007Z,20.60
2022-11-21T16:20:29.078Z,21.38
2022-11-21T16:22:58.564Z,19.23
2022-11-21T16:25:28.026Z,24.27
2022-11-21T16:27:59.784Z,22.77
2022-11-21T16:30:30.257Z,29.92
2022-11-21T16:32:59.830Z,22.02
2022-11-21T16:35:32.367Z,24.05
2022-11-21T16:38:01.856Z,23.70
2022-11-21T16:40:31.296Z,21.02
2022-11-21T16:43:10.124Z,26.98
2022-11-21T16:45:40.087Z,20.48
2022-11-21T16:48:09.730Z,18.67
2022-11-21T16:50:41.733Z,19.42
2022-11-21T16:53:11.440Z,18.73
2022-11-21T16:55:40.929Z,19.60
2022-11-21T16:58:10.364Z,22.13
2022-11-21T17:00:39.921Z,18.15
2022-11-21T17:03:09.432Z,21.35
2022-11-21T17:05:41.467Z,18.15
2022-11-21T17:08:10.999Z,18.77
2022-11-21T17:10:40.453Z,22.60
2022-11-21T17:13:10.039Z,19.00
2022-11-21T17:15:39.609Z,22.27
2022-11-21T17:18:09.071Z,19.63
2022-11-21T17:20:41.168Z,22.27
2022-11-21T17:23:10.599Z,51.42
2022-11-21T17:25:40.080Z,71.10
2022-11-21T17:28:09.563Z,36.65
2022-11-21T17:30:44.169Z,34.33
2022-11-21T17:33:13.687Z,36.20
2022-11-21T17:35:46.712Z,20.73
2022-11-21T17:38:17.185Z,23.30
2022-11-21T17:40:46.696Z,35.53
2022-11-21T17:43:16.119Z,35.93
2022-11-21T17:45:46.972Z,20.07
2022-11-21T17:48:16.384Z,28.30
2022-11-21T17:50:48.449Z,25.33
2022-11-21T17:53:17.935Z,19.27
2022-11-21T17:55:47.993Z,28.07
2022-11-21T17:58:17.462Z,29.53
2022-11-21T18:00:46.961Z,21.50
2022-11-21T18:03:16.426Z,31.00
2022-11-21T18:05:51.626Z,29.02
2022-11-21T18:08:21.440Z,25.63
2022-11-21T18:10:54.693Z,25.10
2022-11-21T18:13:24.269Z,23.13
2022-11-21T18:15:53.752Z,21.60
2022-11-21T18:18:23.667Z,22.05
2022-11-21T18:20:55.748Z,20.77
2022-11-21T18:23:26.263Z,23.80
2022-11-21T18:25:55.739Z,28.20
2022-11-21T18:28:25.225Z,24.27
2022-11-21T18:30:56.008Z,26.50
2022-11-21T18:33:25.578Z,30.80
2022-11-21T18:35:57.674Z,35.58
2022-11-21T18:38:47.283Z,31.17
2022-11-21T18:41:18.572Z,34.65
2022-11-21T18:43:52.429Z,30.15
2022-11-21T18:46:23.160Z,30.33
2022-11-21T18:49:08.739Z,36.83
2022-11-21T18:51:40.890Z,32.15
2022-11-21T18:54:11.134Z,37.45
2022-11-21T18:56:42.752Z,34.45
2022-11-21T18:59:12.276Z,36.85
2022-11-21T19:01:42.160Z,32.35
2022-11-21T19:04:11.667Z,33.70
2022-11-21T19:06:43.767Z,33.88
2022-11-21T19:09:14.824Z,31.63
2022-11-21T19:11:44.448Z,39.97
2022-11-21T19:14:14.117Z,41.63
2022-11-21T19:16:43.621Z,42.90
2022-11-21T19:22:07.456Z,40.92
2022-11-21T19:24:36.896Z,44.95
2022-11-21T19:27:07.784Z,47.33
2022-11-21T19:29:37.343Z,55.22
2022-11-21T19:32:07.461Z,42.55
2022-11-21T19:34:37.007Z,46.47
2022-11-21T19:37:09.309Z,53.88
2022-11-21T19:39:38.719Z,47.22
2022-11-21T19:42:08.229Z,43.08
2022-11-21T19:44:37.624Z,42.85
2022-11-21T19:47:07.110Z,41.75
2022-11-21T19:49:36.566Z,42.45
2022-11-21T19:52:08.804Z,42.13
2022-11-21T19:54:38.440Z,45.75
2022-11-21T19:57:13.518Z,45.28
2022-11-21T19:59:46.615Z,46.80
2022-11-21T20:02:19.346Z,40.58
2022-11-21T20:04:48.992Z,38.13
2022-11-21T20:07:21.222Z,38.60
2022-11-21T20:09:50.712Z,40.15
2022-11-21T20:12:20.153Z,38.03
2022-11-21T20:14:49.616Z,37.05
2022-11-21T20:17:19.252Z,43.10
2022-11-21T20:19:50.755Z,39.78
2022-11-21T20:22:23.266Z,40.60
2022-11-21T20:24:52.678Z,38.80
2022-11-21T20:27:22.248Z,41.35
2022-11-21T20:29:51.696Z,38.55
2022-11-21T20:32:21.218Z,42.20
2022-11-21T20:34:50.740Z,38.70
2022-11-21T20:37:23.007Z,37.58
2022-11-21T20:39:52.542Z,33.92
2022-11-21T20:42:22.015Z,34.90
2022-11-21T20:47:40.939Z,34.13
2022-11-21T20:50:25.742Z,35.80
2022-11-21T20:55:54.707Z,34.22
2022-11-21T20:58:24.179Z,30.13
2022-11-21T21:00:53.697Z,40.95
2022-11-21T21:03:23.173Z,36.25
2022-11-21T21:05:57.205Z,39.35
2022-11-21T21:08:30.384Z,37.50
2022-11-21T21:11:06.345Z,33.17
2022-11-21T21:13:36.587Z,37.65
2022-11-21T21:16:07.501Z,34.40
2022-11-21T21:18:37.776Z,31.33
2022-11-21T21:21:16.839Z,34.20
2022-11-21T21:23:51.021Z,35.58
2022-11-21T21:26:22.786Z,36.95
2022-11-21T21:28:52.433Z,34.88
2022-11-21T21:31:24.166Z,31.52
2022-11-21T21:33:53.928Z,33.53
2022-11-21T21:36:25.394Z,33.70
2022-11-21T21:38:59.149Z,35.67
2022-11-21T21:41:30.683Z,39.58
2022-11-21T21:44:00.549Z,34.10
2022-11-21T21:46:30.572Z,36.78
2022-11-21T21:49:00.754Z,37.22
2022-11-21T21:51:31.514Z,35.45
2022-11-21T21:54:03.590Z,42.38
2022-11-21T21:56:33.631Z,35.25
2022-11-21T21:59:03.148Z,35.33
2022-11-21T22:01:34.209Z,33.97
2022-11-21T22:04:05.256Z,39.88
2022-11-21T22:06:35.955Z,36.60
2022-11-21T22:09:07.992Z,32.20
2022-11-21T22:11:39.420Z,33.88
2022-11-21T22:14:13.331Z,37.92
2022-11-21T22:16:43.159Z,36.17
2022-11-21T22:19:12.718Z,36.25
2022-11-21T22:21:42.427Z,42.63
2022-11-21T22:24:27.167Z,37.97
2022-11-21T22:26:57.495Z,37.03
2022-11-21T22:29:26.974Z,35.15
2022-11-21T22:31:56.547Z,35.38
2022-11-21T22:34:26.675Z,39.17
2022-11-21T22:36:56.224Z,37.67
2022-11-21T22:39:28.371Z,37.95
2022-11-21T22:41:59.991Z,37.80
2022-11-21T22:44:29.854Z,37.83
2022-11-21T22:46:59.732Z,31.00
2022-11-21T22:49:29.275Z,37.10
2022-11-21T22:51:58.837Z,29.92
2022-11-21T22:54:31.241Z,31.90
2022-11-21T22:57:00.882Z,33.83
2022-11-21T22:59:30.400Z,30.20
2022-11-21T23:02:00.008Z,35.20
2022-11-21T23:04:29.632Z,30.90
2022-11-21T23:07:00.134Z,32.63
2022-11-21T23:09:32.420Z,32.33
2022-11-21T23:12:02.038Z,27.27
2022-11-21T23:14:31.560Z,26.25
2022-11-21T23:17:01.396Z,32.10
2022-11-21T23:19:31.181Z,36.10
2022-11-21T23:22:01.139Z,32.55
2022-11-21T23:24:33.214Z,31.25
2022-11-21T23:27:02.757Z,31.63
2022-11-21T23:29:32.412Z,34.35
2022-11-21T23:32:01.935Z,36.47
2022-11-21T23:34:31.404Z,32.15
2022-11-21T23:37:00.921Z,33.08
2022-11-21T23:39:33.032Z,36.65
2022-11-21T23:42:02.561Z,30.92
2022-11-21T23:44:32.245Z,27.40
2022-11-21T23:47:01.732Z,31.50
2022-11-21T23:49:31.425Z,28.45
2022-11-21T23:52:01.116Z,33.00
2022-11-21T23:54:33.237Z,33.80
2022-11-21T23:57:03.035Z,27.27
2022-11-21T23:59:32.769Z,35.85
